Terminal Aerodrome Forecast
Issued by NWS

Home | Current Version | Previous Version | Text Only | Print | Product List | Glossary On
Versions: 1 2 3 4 5 6 7 8 9 10 11 12 13 14 15 16 17 18 19
620
FTUS46 KLOX 200538
TAFSBA
TAF
KSBA 200538Z 2006/2106 VRB05KT 3SM -RA BR SCT006 SCT020 OVC035
     FM201200 10012KT 6SM -RA BR OVC015
     FM201800 10015G20KT 4SM RA BR OVC008
     FM202300 VRB05KT 6SM BR OVC007
     FM210500 14005KT 6SM BR OVC015=

USA.gov is the U.S. government's official web portal to all federal, state and local government web resources and services.